Time;durP1;ratioP1;P1;durP2;ratioP2;P2;SDS_P1;SDS_P2;PMS_P1;PMS_P2;Temp;Humidity;BMP_temperature;BMP_pressure;BME280_temperature;BME280_humidity;BME280_pressure;Samples;Min_cycle;Max_cycle;Signal;HPM_P1;HPM_P2
2023/03/04 00:01:25;;;;;;;34.00;16.97;;;2.40;1.00;;;;;;5050255;28;20556;-69
2023/03/04 00:03:50;;;;;;;34.73;17.70;;;2.80;1.00;;;;;;5047497;28;20185;-69
2023/03/04 00:06:16;;;;;;;34.37;17.33;;;2.40;1.00;;;;;;5048036;28;20216;-70
2023/03/04 00:08:41;;;;;;;37.50;16.87;;;2.30;1.00;;;;;;5047739;28;20270;-69
2023/03/04 00:11:07;;;;;;;38.87;17.23;;;2.40;1.00;;;;;;5048840;28;20311;-69
2023/03/04 00:13:32;;;;;;;30.37;15.10;;;2.30;1.00;;;;;;5048447;28;20219;-69
2023/03/04 00:15:57;;;;;;;30.50;15.57;;;2.60;1.00;;;;;;5048189;28;20703;-70
2023/03/04 00:18:23;;;;;;;33.20;16.70;;;2.60;1.00;;;;;;5048269;28;20205;-69
2023/03/04 00:20:49;;;;;;;37.63;17.30;;;2.20;1.00;;;;;;5049145;28;20184;-69
2023/03/04 00:23:15;;;;;;;31.33;16.77;;;2.30;1.00;;;;;;5048462;28;20201;-69
2023/03/04 00:25:41;;;;;;;35.47;18.30;;;2.60;1.00;;;;;;5030389;28;20227;-69
2023/03/04 00:28:06;;;;;;;34.40;16.70;;;2.20;1.00;;;;;;5048110;28;20436;-69
2023/03/04 00:30:32;;;;;;;40.07;18.53;;;2.20;1.00;;;;;;5047427;28;20544;-69
2023/03/04 00:32:57;;;;;;;36.17;18.40;;;2.20;1.00;;;;;;5046522;28;20290;-69
2023/03/04 00:35:23;;;;;;;41.17;19.33;;;2.20;1.00;;;;;;5049334;28;20181;-69
2023/03/04 00:37:48;;;;;;;38.23;18.03;;;2.40;1.00;;;;;;5030251;28;20455;-69
2023/03/04 00:40:14;;;;;;;37.43;17.13;;;2.40;1.00;;;;;;5047558;28;20272;-69
2023/03/04 00:42:39;;;;;;;38.20;18.87;;;2.00;1.00;;;;;;5047508;28;20700;-70
2023/03/04 00:45:05;;;;;;;37.03;17.87;;;2.00;1.00;;;;;;5031034;28;20632;-69
2023/03/04 00:47:31;;;;;;;42.90;19.53;;;2.00;1.00;;;;;;5046434;28;20178;-69
2023/03/04 00:49:56;;;;;;;42.07;18.57;;;2.00;1.00;;;;;;5047513;28;20446;-69
2023/03/04 00:52:22;;;;;;;38.27;18.63;;;2.00;1.00;;;;;;5048237;28;20687;-70
2023/03/04 00:54:47;;;;;;;40.80;20.10;;;1.90;1.00;;;;;;5046862;28;20185;-70
2023/03/04 00:57:13;;;;;;;45.43;20.60;;;2.20;1.00;;;;;;5048335;28;20189;-70
2023/03/04 00:59:39;;;;;;;42.17;20.53;;;2.40;1.00;;;;;;5048154;28;20385;-70
2023/03/04 01:02:05;;;;;;;47.90;20.90;;;1.80;1.00;;;;;;5051288;28;20329;-70
2023/03/04 01:04:31;;;;;;;43.70;20.23;;;1.80;1.00;;;;;;5051639;28;20540;-70
2023/03/04 01:06:56;;;;;;;42.80;20.47;;;1.70;1.00;;;;;;5032843;28;20916;-69
2023/03/04 01:09:22;;;;;;;40.33;20.30;;;1.70;1.00;;;;;;5032527;28;20235;-69
2023/03/04 01:11:47;;;;;;;48.30;21.90;;;2.20;1.00;;;;;;5051634;28;20201;-69
2023/03/04 01:14:13;;;;;;;45.17;21.20;;;2.20;1.00;;;;;;5034410;28;20192;-70
2023/03/04 01:16:38;;;;;;;45.00;22.10;;;2.00;1.00;;;;;;5034805;28;20272;-70
2023/03/04 01:19:04;;;;;;;47.33;21.90;;;1.60;1.00;;;;;;5050629;28;20224;-70
2023/03/04 01:21:29;;;;;;;43.97;20.33;;;1.60;1.00;;;;;;5053017;28;20216;-70
2023/03/04 01:23:55;;;;;;;45.13;21.93;;;2.00;1.00;;;;;;5051246;28;20208;-70
2023/03/04 01:26:21;;;;;;;44.20;20.60;;;1.60;1.00;;;;;;5052000;28;20193;-70
2023/03/04 01:28:46;;;;;;;49.30;21.10;;;1.50;1.00;;;;;;5051345;28;20204;-70
2023/03/04 01:31:12;;;;;;;50.73;21.67;;;1.50;1.00;;;;;;5051619;28;20651;-70
2023/03/04 01:33:37;;;;;;;48.50;22.30;;;1.50;1.00;;;;;;5050477;28;20193;-70
2023/03/04 01:36:03;;;;;;;54.07;22.40;;;1.90;1.00;;;;;;5051468;28;20663;-69
2023/03/04 01:38:29;;;;;;;52.27;23.23;;;1.40;1.00;;;;;;5049983;28;20279;-70
2023/03/04 01:40:54;;;;;;;52.00;22.00;;;1.40;1.00;;;;;;5051025;28;20200;-70
2023/03/04 01:43:23;;;;;;;48.13;22.30;;;1.80;1.00;;;;;;5031901;28;20679;-69
2023/03/04 01:45:50;;;;;;;52.10;23.60;;;1.60;1.00;;;;;;5051978;28;20173;-70
2023/03/04 01:48:20;;;;;;;53.50;24.47;;;1.90;1.00;;;;;;5032528;28;20435;-70
2023/03/04 01:50:45;;;;;;;50.60;22.60;;;1.70;1.00;;;;;;5034021;28;20423;-69
2023/03/04 01:53:21;;;;;;;53.37;23.40;;;1.20;1.00;;;;;;5049392;28;20759;-69
2023/03/04 01:55:48;;;;;;;49.63;23.80;;;1.20;1.00;;;;;;5047921;28;20720;-69
2023/03/04 01:58:13;;;;;;;58.00;24.80;;;1.70;1.00;;;;;;5050264;28;20482;-69
2023/03/04 02:00:39;;;;;;;55.30;24.47;;;1.60;1.00;;;;;;5051343;28;20424;-69
2023/03/04 02:03:10;;;;;;;66.83;26.53;;;1.70;1.00;;;;;;5033309;28;20287;-69
2023/03/04 02:05:39;;;;;;;54.60;24.03;;;1.20;1.00;;;;;;5051770;28;20432;-69
2023/03/04 02:08:05;;;;;;;58.33;25.30;;;1.20;1.00;;;;;;5050283;28;20439;-69
2023/03/04 02:10:32;;;;;;;57.03;25.17;;;1.20;1.00;;;;;;5049189;28;20821;-69
2023/03/04 02:12:58;;;;;;;61.10;24.67;;;1.20;1.00;;;;;;5049475;28;20471;-69
2023/03/04 02:15:24;;;;;;;58.60;25.50;;;1.60;1.00;;;;;;5051041;28;20447;-69
2023/03/04 02:17:50;;;;;;;55.20;25.10;;;1.20;1.00;;;;;;5051261;28;20427;-69
2023/03/04 02:20:42;;;;;;;56.63;25.33;;;1.40;1.00;;;;;;5048823;28;20192;-69
2023/03/04 02:23:15;;;;;;;62.80;24.80;;;1.20;1.00;;;;;;5031984;28;20283;-70
2023/03/04 02:26:08;;;;;;;55.70;24.10;;;1.60;1.00;;;;;;5050966;28;20459;-69
2023/03/04 02:28:33;;;;;;;52.27;22.37;;;1.10;1.00;;;;;;5046029;28;20436;-69
2023/03/04 02:30:59;;;;;;;51.10;22.20;;;0.70;1.00;;;;;;5050994;28;20650;-69
2023/03/04 02:33:24;;;;;;;61.83;25.03;;;1.50;1.00;;;;;;5049241;28;20223;-69
2023/03/04 02:35:50;;;;;;;59.07;24.77;;;1.10;1.00;;;;;;5051194;28;20195;-69
2023/03/04 02:38:15;;;;;;;50.83;21.50;;;1.00;1.00;;;;;;5049757;28;20703;-69
2023/03/04 02:40:44;;;;;;;53.80;23.30;;;1.00;1.00;;;;;;5050364;28;20223;-69
2023/03/04 02:43:13;;;;;;;58.90;25.10;;;1.00;1.00;;;;;;5048399;28;20223;-69
2023/03/04 02:45:40;;;;;;;61.70;24.33;;;1.00;1.00;;;;;;5050090;28;20436;-69
2023/03/04 02:48:07;;;;;;;55.40;23.30;;;0.90;1.00;;;;;;5029994;28;20435;-69
2023/03/04 02:50:37;;;;;;;55.30;23.83;;;0.80;1.00;;;;;;5049342;28;20501;-69
2023/03/04 02:53:03;;;;;;;56.20;22.60;;;1.10;1.00;;;;;;5047695;28;20454;-69
2023/03/04 02:55:28;;;;;;;57.27;24.57;;;1.30;1.00;;;;;;5043348;28;20427;-69
2023/03/04 02:57:54;;;;;;;58.37;24.63;;;1.10;1.00;;;;;;5032066;28;20573;-70
2023/03/04 03:00:20;;;;;;;51.13;22.97;;;0.70;1.00;;;;;;5050165;28;20587;-70
2023/03/04 03:02:45;;;;;;;51.40;23.13;;;0.70;1.00;;;;;;5048045;28;20197;-69
2023/03/04 03:05:11;;;;;;;55.30;24.37;;;0.60;1.00;;;;;;5031768;28;20402;-69
2023/03/04 03:07:37;;;;;;;53.13;22.50;;;1.00;1.00;;;;;;5049512;28;20189;-69
2023/03/04 03:10:03;;;;;;;50.03;21.63;;;0.50;1.00;;;;;;5049050;28;20894;-70
2023/03/04 03:12:28;;;;;;;54.87;23.30;;;0.50;1.00;;;;;;5049028;28;20212;-69
2023/03/04 03:14:54;;;;;;;60.30;23.53;;;0.50;1.00;;;;;;5050498;28;20439;-69
2023/03/04 03:17:19;;;;;;;51.10;21.80;;;0.40;1.00;;;;;;5049908;28;20601;-69
2023/03/04 03:19:45;;;;;;;55.80;21.60;;;0.40;1.00;;;;;;5048859;28;20532;-69
2023/03/04 03:22:10;;;;;;;51.50;20.80;;;0.40;1.00;;;;;;5050078;28;20712;-69
2023/03/04 03:24:36;;;;;;;52.60;22.87;;;0.80;1.00;;;;;;5048752;28;20181;-69
2023/03/04 03:27:01;;;;;;;55.07;21.50;;;0.40;1.00;;;;;;5049920;28;20189;-69
2023/03/04 03:29:27;;;;;;;52.57;21.67;;;0.30;1.00;;;;;;5030509;28;20275;-69
2023/03/04 03:31:52;;;;;;;52.93;22.77;;;0.80;1.00;;;;;;5049701;28;20216;-69
2023/03/04 03:34:18;;;;;;;54.73;22.50;;;0.30;1.00;;;;;;5046919;28;20203;-69
2023/03/04 03:36:43;;;;;;;62.27;24.77;;;0.30;1.00;;;;;;5048498;28;20189;-70
2023/03/04 03:39:09;;;;;;;58.40;23.43;;;0.30;1.00;;;;;;5030483;28;20329;-69
2023/03/04 03:41:34;;;;;;;59.27;25.07;;;0.20;1.00;;;;;;5047194;28;20205;-69
2023/03/04 03:44:00;;;;;;;58.40;24.20;;;0.50;1.00;;;;;;5048721;28;20185;-69
2023/03/04 03:46:26;;;;;;;55.57;22.37;;;0.50;1.00;;;;;;5049039;28;20594;-69
2023/03/04 03:48:51;;;;;;;56.47;24.27;;;0.00;1.00;;;;;;5049110;28;20702;-69
2023/03/04 03:51:17;;;;;;;53.67;23.20;;;0.10;1.00;;;;;;5029830;28;20192;-70
2023/03/04 03:53:42;;;;;;;57.10;23.43;;;0.10;1.00;;;;;;5045253;28;20189;-69
2023/03/04 03:56:08;;;;;;;59.80;22.30;;;0.10;1.00;;;;;;5046829;28;20223;-69
2023/03/04 03:58:33;;;;;;;62.43;24.50;;;0.50;1.00;;;;;;5049560;28;20207;-70
2023/03/04 04:00:59;;;;;;;59.87;23.93;;;0.40;1.00;;;;;;5048623;28;20219;-70
2023/03/04 04:03:25;;;;;;;55.97;24.03;;;0.50;1.00;;;;;;5048164;28;20565;-70
2023/03/04 04:05:50;;;;;;;57.00;22.07;;;0.10;1.00;;;;;;5047448;28;20227;-70
2023/03/04 04:08:18;;;;;;;66.00;25.30;;;0.50;1.00;;;;;;5049290;28;20681;-70
2023/03/04 04:10:44;;;;;;;55.83;22.97;;;0.00;1.00;;;;;;5048764;28;20188;-69
2023/03/04 04:13:10;;;;;;;67.03;25.50;;;0.00;1.00;;;;;;5050699;28;20924;-69
2023/03/04 04:15:37;;;;;;;59.23;22.60;;;0.40;1.00;;;;;;5049441;28;20173;-69
2023/03/04 04:18:03;;;;;;;60.70;23.23;;;0.20;1.00;;;;;;5049175;28;20268;-69
2023/03/04 04:20:29;;;;;;;64.37;24.87;;;-0.10;1.00;;;;;;5047202;28;20443;-69
2023/03/04 04:22:55;;;;;;;63.33;25.20;;;0.40;1.00;;;;;;5048153;28;20466;-69
2023/03/04 04:25:20;;;;;;;59.23;24.23;;;0.60;1.00;;;;;;5030659;28;20179;-70
2023/03/04 04:27:46;;;;;;;66.00;26.17;;;0.40;1.00;;;;;;5048303;28;20184;-70
2023/03/04 04:30:12;;;;;;;63.13;24.50;;;0.90;1.00;;;;;;5048979;28;20212;-69
2023/03/04 04:32:37;;;;;;;60.13;23.97;;;0.60;1.00;;;;;;5045617;28;20317;-69
2023/03/04 04:35:03;;;;;;;57.00;23.20;;;1.00;1.00;;;;;;5047107;28;20189;-69
2023/03/04 04:37:29;;;;;;;59.70;23.67;;;0.70;1.00;;;;;;5030063;28;20670;-69
2023/03/04 04:39:54;;;;;;;65.67;25.10;;;0.70;1.00;;;;;;5048360;28;20213;-70
2023/03/04 04:42:21;;;;;;;58.60;24.33;;;0.70;1.00;;;;;;5047530;28;20220;-70
2023/03/04 04:44:46;;;;;;;58.73;23.97;;;1.00;1.00;;;;;;5048931;28;20177;-70
2023/03/04 04:47:12;;;;;;;60.20;24.87;;;0.70;1.00;;;;;;5047688;28;20474;-69
2023/03/04 04:49:37;;;;;;;64.30;25.47;;;0.70;1.00;;;;;;5048178;28;20193;-69
2023/03/04 04:52:03;;;;;;;54.00;23.97;;;0.60;1.00;;;;;;5046716;28;20212;-70
2023/03/04 04:54:29;;;;;;;64.40;25.63;;;0.60;1.00;;;;;;5029655;28;20300;-69
2023/03/04 04:56:54;;;;;;;61.30;27.00;;;0.50;1.00;;;;;;5047714;28;20200;-69
2023/03/04 04:59:20;;;;;;;60.73;25.93;;;0.40;1.00;;;;;;5046397;28;20208;-70
2023/03/04 05:01:46;;;;;;;67.30;26.00;;;0.20;1.00;;;;;;5046674;28;20208;-69
2023/03/04 05:04:11;;;;;;;72.13;24.20;;;0.60;1.00;;;;;;5047346;28;20193;-70
2023/03/04 05:06:37;;;;;;;84.77;26.17;;;0.60;1.00;;;;;;5047441;28;20184;-70
2023/03/04 05:09:03;;;;;;;62.10;23.80;;;0.00;1.00;;;;;;5028476;28;20185;-69
2023/03/04 05:11:29;;;;;;;52.43;22.87;;;0.00;1.00;;;;;;5047374;28;20238;-69
2023/03/04 05:13:54;;;;;;;55.40;23.50;;;0.40;1.00;;;;;;5048147;28;20917;-69
2023/03/04 05:16:20;;;;;;;64.30;23.30;;;0.30;1.00;;;;;;5048195;28;20279;-69
2023/03/04 05:18:46;;;;;;;56.23;24.80;;;-0.20;1.00;;;;;;5046359;28;20588;-71
2023/03/04 05:21:11;;;;;;;57.07;24.43;;;-0.30;1.00;;;;;;5048521;28;20704;-69
2023/03/04 05:23:40;;;;;;;59.73;25.70;;;-0.30;1.00;;;;;;5043819;28;20232;-70
2023/03/04 05:26:06;;;;;;;60.87;25.90;;;0.20;1.00;;;;;;5030383;28;20246;-70
2023/03/04 05:28:32;;;;;;;73.03;31.13;;;0.20;1.00;;;;;;5047118;28;20439;-70
2023/03/04 05:30:58;;;;;;;63.30;26.20;;;0.30;1.00;;;;;;5030433;28;20560;-70
2023/03/04 05:33:23;;;;;;;64.93;25.37;;;0.10;1.00;;;;;;5045744;28;20845;-69
2023/03/04 05:35:49;;;;;;;60.27;26.10;;;0.70;1.00;;;;;;5028218;28;20193;-69
2023/03/04 05:38:17;;;;;;;64.43;25.30;;;0.30;1.00;;;;;;5030151;28;20296;-69
2023/03/04 05:40:44;;;;;;;67.17;27.40;;;0.40;1.00;;;;;;5029985;28;20558;-69
2023/03/04 05:43:09;;;;;;;67.97;26.93;;;1.00;1.00;;;;;;5047725;28;20470;-70
2023/03/04 05:45:35;;;;;;;65.07;26.70;;;0.50;1.00;;;;;;5047787;28;20919;-69
2023/03/04 05:48:02;;;;;;;66.07;25.23;;;0.50;1.00;;;;;;5050948;28;20181;-69
2023/03/04 05:50:27;;;;;;;61.67;25.30;;;0.60;1.00;;;;;;5050858;28;20447;-70
2023/03/04 05:52:53;;;;;;;67.73;26.90;;;0.60;1.00;;;;;;5033807;28;20521;-69
2023/03/04 05:55:18;;;;;;;60.90;25.97;;;1.10;1.00;;;;;;5050282;28;20541;-69
2023/03/04 05:57:44;;;;;;;60.60;23.40;;;0.70;1.00;;;;;;5033854;28;20177;-70
2023/03/04 06:00:12;;;;;;;60.90;23.73;;;0.70;1.00;;;;;;5051015;28;20287;-69
2023/03/04 06:02:37;;;;;;;61.57;23.20;;;0.60;1.00;;;;;;5031045;28;20680;-69
2023/03/04 06:05:04;;;;;;;58.20;24.10;;;0.60;1.00;;;;;;5051788;28;20470;-69
2023/03/04 06:07:29;;;;;;;68.60;25.43;;;0.60;1.00;;;;;;5050755;28;20182;-69
2023/03/04 06:09:55;;;;;;;66.67;26.10;;;1.00;1.00;;;;;;5051776;28;20454;-70
2023/03/04 06:12:20;;;;;;;64.00;24.73;;;0.90;1.00;;;;;;5032098;28;20585;-69
2023/03/04 06:14:46;;;;;;;66.73;25.90;;;0.80;1.00;;;;;;5032755;28;20196;-70
2023/03/04 06:17:11;;;;;;;60.00;25.77;;;1.10;1.00;;;;;;5051025;28;20189;-70
2023/03/04 06:19:37;;;;;;;67.90;25.00;;;1.30;1.00;;;;;;5053919;28;20213;-69
2023/03/04 06:22:04;;;;;;;63.53;25.20;;;0.90;1.00;;;;;;5050454;28;20228;-70
2023/03/04 06:24:29;;;;;;;64.83;26.07;;;1.20;1.00;;;;;;5049572;28;20181;-70
2023/03/04 06:26:55;;;;;;;60.93;25.13;;;1.20;1.00;;;;;;5050188;28;20462;-70
2023/03/04 06:29:20;;;;;;;71.73;26.47;;;0.90;1.00;;;;;;5051315;28;20440;-70
2023/03/04 06:31:46;;;;;;;64.40;26.40;;;1.00;1.00;;;;;;5032232;28;20591;-70
2023/03/04 06:34:11;;;;;;;60.03;25.57;;;1.00;1.00;;;;;;5050302;28;20196;-70
2023/03/04 06:36:37;;;;;;;61.83;25.43;;;1.20;1.00;;;;;;5050632;28;20231;-70
2023/03/04 06:39:07;;;;;;;68.70;25.87;;;1.60;1.00;;;;;;5050687;28;20205;-70
2023/03/04 06:41:33;;;;;;;64.90;27.80;;;1.30;1.00;;;;;;5050850;28;20213;-70
2023/03/04 06:43:58;;;;;;;70.63;29.43;;;1.70;1.00;;;;;;5049951;28;20522;-70
2023/03/04 06:46:24;;;;;;;62.60;27.30;;;1.20;1.00;;;;;;5050420;28;20798;-70
2023/03/04 06:48:50;;;;;;;69.93;27.13;;;1.30;1.00;;;;;;5049769;28;20189;-70
2023/03/04 06:51:15;;;;;;;66.70;26.20;;;1.30;1.00;;;;;;5050956;28;20193;-70
2023/03/04 06:53:41;;;;;;;70.90;27.00;;;1.40;1.00;;;;;;5030947;28;20192;-70
2023/03/04 06:56:08;;;;;;;63.50;26.80;;;1.60;1.00;;;;;;5050860;28;20247;-71
2023/03/04 06:58:34;;;;;;;71.57;27.73;;;1.90;1.00;;;;;;5028998;28;20635;-70
2023/03/04 07:01:29;;;;;;;63.07;25.50;;;1.60;1.00;;;;;;5049581;28;20530;-70
2023/03/04 07:03:56;;;;;;;67.97;26.70;;;1.60;1.00;;;;;;5033538;28;20200;-71
2023/03/04 07:06:24;;;;;;;63.20;26.07;;;1.60;1.00;;;;;;5026304;28;20551;-70
2023/03/04 07:08:50;;;;;;;64.20;26.33;;;1.70;1.00;;;;;;5029746;28;20531;-71
2023/03/04 07:11:17;;;;;;;64.17;27.07;;;2.20;1.00;;;;;;5050498;28;20969;-71
2023/03/04 07:13:42;;;;;;;66.60;27.40;;;1.90;1.00;;;;;;5027065;28;20455;-70
2023/03/04 07:16:12;;;;;;;61.27;26.50;;;2.40;1.00;;;;;;5046612;28;20509;-70
2023/03/04 07:18:38;;;;;;;72.00;28.53;;;2.00;1.00;;;;;;5029910;28;20717;-70
2023/03/04 07:21:05;;;;;;;64.20;27.20;;;2.70;1.00;;;;;;5029862;28;20766;-70
2023/03/04 07:23:30;;;;;;;62.70;25.73;;;2.10;1.00;;;;;;5045729;28;20283;-71
2023/03/04 07:25:56;;;;;;;66.27;26.93;;;2.60;1.00;;;;;;5049886;28;20526;-70
2023/03/04 07:28:22;;;;;;;68.30;28.60;;;2.50;1.00;;;;;;5048098;28;20375;-70
2023/03/04 07:30:47;;;;;;;65.43;25.60;;;2.30;1.00;;;;;;5047606;28;20447;-70
2023/03/04 07:33:13;;;;;;;67.80;27.23;;;2.40;1.00;;;;;;5045410;28;20213;-70
2023/03/04 07:35:39;;;;;;;57.90;24.77;;;2.90;1.00;;;;;;5046876;28;20835;-70
2023/03/04 07:38:05;;;;;;;62.97;25.20;;;2.50;1.00;;;;;;5049428;28;20486;-70
2023/03/04 07:40:31;;;;;;;64.40;26.43;;;2.90;1.00;;;;;;5048087;28;20922;-70
2023/03/04 07:42:56;;;;;;;65.73;26.83;;;2.60;1.00;;;;;;5049396;28;20208;-70
2023/03/04 07:45:23;;;;;;;62.60;26.37;;;2.60;1.00;;;;;;5048350;28;20313;-72
2023/03/04 07:47:49;;;;;;;67.13;30.47;;;2.90;1.00;;;;;;5030825;28;20455;-73
2023/03/04 07:50:15;;;;;;;70.90;29.07;;;3.20;1.00;;;;;;5049859;28;20439;-73
2023/03/04 07:52:44;;;;;;;63.50;27.03;;;3.60;1.00;;;;;;5041134;28;21031;-72
2023/03/04 07:55:11;;;;;;;61.70;26.17;;;3.60;1.00;;;;;;5047435;28;20523;-73
2023/03/04 07:57:40;;;;;;;64.60;26.40;;;3.70;1.00;;;;;;5049514;28;20440;-71
2023/03/04 08:00:07;;;;;;;69.97;27.07;;;4.20;1.00;;;;;;5049559;28;20493;-70
2023/03/04 08:02:33;;;;;;;69.03;27.97;;;3.90;1.00;;;;;;5029503;28;20455;-70
2023/03/04 08:04:58;;;;;;;79.70;28.87;;;3.60;1.00;;;;;;5049881;28;20419;-70
2023/03/04 08:07:24;;;;;;;61.80;26.03;;;4.10;1.00;;;;;;5049306;28;20528;-70
2023/03/04 08:09:49;;;;;;;62.43;27.00;;;3.50;1.00;;;;;;5049155;28;20181;-70
2023/03/04 08:12:15;;;;;;;68.60;27.87;;;3.00;1.00;;;;;;5030806;28;20255;-70
2023/03/04 08:14:40;;;;;;;71.43;30.80;;;3.60;1.00;;;;;;5028643;28;21051;-70
2023/03/04 08:17:06;;;;;;;65.10;29.27;;;4.00;1.00;;;;;;5030496;28;20530;-71
2023/03/04 08:19:31;;;;;;;63.77;27.73;;;3.60;1.00;;;;;;5047758;28;20208;-71
2023/03/04 08:21:57;;;;;;;67.13;29.27;;;4.20;1.00;;;;;;5049312;28;20205;-71
2023/03/04 08:24:22;;;;;;;65.17;28.17;;;3.70;1.00;;;;;;5049988;28;20189;-70
2023/03/04 08:26:49;;;;;;;68.27;30.40;;;3.70;1.00;;;;;;5055891;28;20347;-71
2023/03/04 08:29:19;;;;;;;64.57;27.27;;;3.70;1.00;;;;;;5030815;28;20181;-70
2023/03/04 08:31:45;;;;;;;72.53;30.03;;;3.80;1.00;;;;;;5047289;28;20466;-70
2023/03/04 08:34:12;;;;;;;66.33;28.50;;;3.70;1.00;;;;;;5048678;28;20525;-71
2023/03/04 08:36:38;;;;;;;70.80;31.23;;;3.70;1.00;;;;;;5048201;28;20423;-71
2023/03/04 08:39:04;;;;;;;69.13;29.50;;;3.90;1.00;;;;;;5042908;28;20470;-71
2023/03/04 08:41:30;;;;;;;62.50;27.83;;;4.00;1.00;;;;;;5048988;28;20190;-71
2023/03/04 08:43:55;;;;;;;70.47;29.17;;;3.90;1.00;;;;;;5048949;28;20833;-70
2023/03/04 08:46:21;;;;;;;79.07;31.07;;;3.90;1.00;;;;;;5031908;28;20714;-71
2023/03/04 08:48:46;;;;;;;69.27;29.30;;;4.00;1.00;;;;;;5046428;28;20268;-71
2023/03/04 08:51:14;;;;;;;65.63;27.57;;;4.20;1.00;;;;;;5039370;28;20193;-71
2023/03/04 08:53:40;;;;;;;66.33;27.50;;;4.10;1.00;;;;;;5046878;28;20173;-71
2023/03/04 08:56:06;;;;;;;65.00;28.87;;;4.40;1.00;;;;;;5049686;28;20492;-70
2023/03/04 08:58:32;;;;;;;74.77;30.63;;;4.00;1.00;;;;;;5049113;28;20236;-71
2023/03/04 09:00:59;;;;;;;71.53;28.53;;;3.40;1.00;;;;;;5049821;28;20463;-71
2023/03/04 09:03:25;;;;;;;73.77;29.20;;;3.90;1.00;;;;;;5049480;28;20689;-71
2023/03/04 09:05:51;;;;;;;71.77;29.33;;;3.80;1.00;;;;;;5031429;28;20443;-71
2023/03/04 09:08:17;;;;;;;64.03;27.87;;;3.90;1.00;;;;;;5049420;28;20272;-71
2023/03/04 09:10:44;;;;;;;66.43;28.60;;;4.00;1.00;;;;;;5046375;28;20525;-71
2023/03/04 09:13:10;;;;;;;61.43;27.03;;;4.10;1.00;;;;;;5049186;28;20542;-71
2023/03/04 09:15:37;;;;;;;63.47;28.03;;;4.10;1.00;;;;;;5049206;28;20446;-71
2023/03/04 09:18:04;;;;;;;62.80;27.07;;;4.20;1.00;;;;;;5049437;28;20943;-71
2023/03/04 09:20:30;;;;;;;69.73;28.07;;;4.20;1.00;;;;;;5049056;28;20832;-70
2023/03/04 09:22:56;;;;;;;65.77;26.27;;;4.40;1.00;;;;;;5052382;28;20969;-71
2023/03/04 09:25:21;;;;;;;73.27;28.23;;;4.20;1.00;;;;;;5053485;28;20427;-71
2023/03/04 09:27:47;;;;;;;73.50;27.73;;;4.10;1.00;;;;;;5052908;28;20185;-71
2023/03/04 09:30:13;;;;;;;67.23;26.87;;;4.20;1.00;;;;;;5053404;28;20193;-71
2023/03/04 09:32:40;;;;;;;67.27;27.63;;;4.30;1.00;;;;;;5052207;28;20216;-71
2023/03/04 09:35:06;;;;;;;64.13;27.60;;;4.30;1.00;;;;;;5035525;28;20614;-71
2023/03/04 09:37:32;;;;;;;68.97;28.20;;;4.40;1.00;;;;;;5034926;28;20522;-71
2023/03/04 09:39:58;;;;;;;68.33;28.43;;;4.50;1.00;;;;;;5052989;28;20474;-71
2023/03/04 09:42:29;;;;;;;77.93;29.53;;;4.30;1.00;;;;;;5052793;28;20534;-71
2023/03/04 09:44:55;;;;;;;69.63;28.60;;;4.40;1.00;;;;;;5027055;28;20678;-71
2023/03/04 09:47:23;;;;;;;71.30;28.00;;;4.90;1.00;;;;;;5053077;28;20431;-70
2023/03/04 09:49:59;;;;;;;61.53;28.30;;;4.30;1.00;;;;;;5052526;28;20428;-71
2023/03/04 09:52:39;;;;;;;69.03;28.17;;;4.40;1.00;;;;;;5052667;28;20454;-71
2023/03/04 09:55:05;;;;;;;63.23;27.90;;;4.40;1.00;;;;;;5050918;28;20750;-71
2023/03/04 09:57:47;;;;;;;72.10;29.03;;;4.20;1.00;;;;;;5034795;28;20419;-70
2023/03/04 10:00:18;;;;;;;76.63;28.63;;;4.30;1.00;;;;;;5051213;28;20686;-71
2023/03/04 10:02:58;;;;;;;66.57;27.20;;;4.40;1.00;;;;;;5034222;28;20803;-71
2023/03/04 10:05:26;;;;;;;74.13;29.20;;;4.40;1.00;;;;;;5052780;28;20430;-71
2023/03/04 10:07:58;;;;;;;70.50;28.80;;;4.30;1.00;;;;;;5052253;28;20443;-71
2023/03/04 10:10:34;;;;;;;73.07;29.33;;;4.40;1.00;;;;;;5055055;28;20435;-71
2023/03/04 10:13:01;;;;;;;67.13;27.60;;;4.30;1.00;;;;;;5050891;28;20513;-71
2023/03/04 10:15:45;;;;;;;74.57;29.60;;;4.40;1.00;;;;;;5052557;28;20948;-71
2023/03/04 10:18:22;;;;;;;69.53;28.70;;;4.70;1.00;;;;;;5052318;28;20431;-71
2023/03/04 10:21:15;;;;;;;69.03;29.47;;;4.80;1.00;;;;;;5036757;28;20466;-71
2023/03/04 10:23:41;;;;;;;67.77;28.53;;;4.90;1.00;;;;;;5049744;28;20428;-71
2023/03/04 10:26:16;;;;;;;65.67;27.00;;;4.90;1.00;;;;;;5052650;28;20424;-71
2023/03/04 10:28:42;;;;;;;67.20;28.53;;;5.00;1.00;;;;;;5051863;28;20431;-71
2023/03/04 10:31:11;;;;;;;65.33;27.03;;;5.00;1.00;;;;;;5052559;28;20439;-71
2023/03/04 10:33:39;;;;;;;73.07;28.73;;;5.00;1.00;;;;;;5049994;28;20440;-71
2023/03/04 10:36:31;;;;;;;66.93;28.37;;;5.10;1.00;;;;;;5052184;28;20926;-71
2023/03/04 10:39:20;;;;;;;70.73;28.57;;;5.10;1.00;;;;;;5043655;28;20553;-71
2023/03/04 10:42:01;;;;;;;71.67;29.13;;;5.20;1.00;;;;;;5051370;28;20474;-71
2023/03/04 10:44:28;;;;;;;68.50;29.47;;;5.30;1.00;;;;;;5051844;28;20971;-71
2023/03/04 10:46:55;;;;;;;59.13;27.83;;;5.30;1.00;;;;;;5033726;28;20450;-70
2023/03/04 10:49:23;;;;;;;64.53;26.83;;;5.40;1.00;;;;;;5051822;28;20438;-71
2023/03/04 10:51:51;;;;;;;67.17;29.87;;;5.50;1.00;;;;;;5051272;28;20454;-70
2023/03/04 10:54:38;;;;;;;74.47;30.30;;;5.60;1.00;;;;;;5032968;28;20428;-70
2023/03/04 10:57:12;;;;;;;65.47;27.70;;;5.70;1.00;;;;;;5044508;28;20451;-70
2023/03/04 10:59:59;;;;;;;65.27;28.67;;;5.80;1.00;;;;;;5033281;28;20553;-70
2023/03/04 11:02:34;;;;;;;66.27;29.23;;;5.90;1.00;;;;;;5033044;28;20497;-71
2023/03/04 11:05:08;;;;;;;63.40;26.70;;;6.00;1.00;;;;;;5051266;28;21253;-71
2023/03/04 11:07:52;;;;;;;65.60;28.60;;;6.00;1.00;;;;;;5051035;28;20415;-70
2023/03/04 11:10:23;;;;;;;65.13;29.30;;;6.00;1.00;;;;;;5050941;28;20427;-71
2023/03/04 11:12:58;;;;;;;61.93;29.40;;;6.10;1.00;;;;;;5048774;28;20443;-70
2023/03/04 11:15:26;;;;;;;67.67;29.67;;;6.10;1.00;;;;;;5050980;28;20488;-71
2023/03/04 11:18:02;;;;;;;59.60;27.57;;;6.00;1.00;;;;;;5050176;28;20882;-71
2023/03/04 11:20:30;;;;;;;60.70;29.07;;;6.00;1.00;;;;;;5047159;28;20710;-71
2023/03/04 11:22:59;;;;;;;63.70;27.80;;;6.60;1.00;;;;;;5049925;28;20751;-70
2023/03/04 11:25:31;;;;;;;59.80;27.63;;;6.30;1.00;;;;;;5032540;28;20853;-70
2023/03/04 11:28:05;;;;;;;69.00;28.70;;;6.40;1.00;;;;;;5049909;28;20499;-71
2023/03/04 11:30:40;;;;;;;63.23;28.83;;;6.50;1.00;;;;;;5046606;28;20431;-70
2023/03/04 11:33:41;;;;;;;67.20;28.43;;;6.40;1.00;;;;;;5042554;28;21011;-71
2023/03/04 11:36:43;;;;;;;57.20;27.00;;;6.30;1.00;;;;;;5043679;28;20477;-71
2023/03/04 11:39:21;;;;;;;59.13;26.37;;;6.60;1.00;;;;;;5050688;28;20956;-71
2023/03/04 11:41:57;;;;;;;55.23;26.10;;;6.80;1.00;;;;;;5050502;28;20443;-71
2023/03/04 11:44:24;;;;;;;58.70;28.10;;;6.90;1.00;;;;;;5050140;28;20524;-71
2023/03/04 11:47:17;;;;;;;55.43;26.87;;;7.00;1.00;;;;;;5050524;28;20424;-71
2023/03/04 11:49:58;;;;;;;62.40;28.67;;;7.00;1.00;;;;;;5050507;28;20427;-70
2023/03/04 11:52:45;;;;;;;54.60;26.20;;;7.10;1.00;;;;;;5050552;28;20534;-71
2023/03/04 11:55:28;;;;;;;62.23;26.50;;;6.90;1.00;;;;;;5046397;28;20431;-70
2023/03/04 11:58:19;;;;;;;56.30;25.33;;;7.10;1.00;;;;;;5050047;28;20942;-71
2023/03/04 12:01:22;;;;;;;53.10;24.30;;;7.30;1.00;;;;;;5050348;28;20770;-71
2023/03/04 12:04:01;;;;;;;47.10;25.20;;;7.50;1.00;;;;;;5049946;28;20988;-71
2023/03/04 12:07:05;;;;;;;54.97;24.53;;;7.50;1.00;;;;;;5050523;28;20455;-71
2023/03/04 12:09:40;;;;;;;50.60;25.17;;;7.30;1.00;;;;;;5032076;28;20463;-71
2023/03/04 12:12:20;;;;;;;47.63;24.60;;;7.30;1.00;;;;;;5042559;28;20833;-71
2023/03/04 12:15:02;;;;;;;44.00;22.73;;;7.30;1.00;;;;;;5049570;28;20424;-70
2023/03/04 12:17:47;;;;;;;43.93;22.80;;;7.20;1.00;;;;;;5050189;28;20456;-71
2023/03/04 12:20:27;;;;;;;44.27;23.10;;;7.20;1.00;;;;;;5050629;28;20451;-71
2023/03/04 12:23:17;;;;;;;39.17;21.53;;;7.30;1.00;;;;;;5049476;28;20443;-71
2023/03/04 12:26:01;;;;;;;34.50;19.07;;;7.40;1.00;;;;;;5049045;28;20428;-70
2023/03/04 12:28:41;;;;;;;32.80;18.90;;;7.30;1.00;;;;;;5050086;28;20859;-71
2023/03/04 12:31:16;;;;;;;37.77;20.40;;;7.40;1.00;;;;;;5042535;28;20420;-71
2023/03/04 12:34:01;;;;;;;29.87;17.40;;;7.50;1.00;;;;;;5049529;28;20454;-71
2023/03/04 12:37:04;;;;;;;33.10;17.87;;;7.40;1.00;;;;;;5049644;28;20431;-71
2023/03/04 12:39:32;;;;;;;27.73;17.30;;;7.30;1.00;;;;;;5031811;28;20505;-72
2023/03/04 12:42:26;;;;;;;33.70;17.57;;;7.30;1.00;;;;;;5049506;28;21540;-71
2023/03/04 12:45:07;;;;;;;32.07;16.80;;;7.40;1.00;;;;;;5049087;28;20450;-71
2023/03/04 12:47:52;;;;;;;36.87;19.53;;;7.50;1.00;;;;;;5049839;28;20411;-71
2023/03/04 12:50:29;;;;;;;30.50;17.80;;;7.60;1.00;;;;;;5043628;28;20952;-71
2023/03/04 12:53:08;;;;;;;35.50;18.70;;;7.70;1.00;;;;;;5048969;28;20451;-72
2023/03/04 12:55:37;;;;;;;31.17;17.27;;;7.80;1.00;;;;;;5045514;28;20932;-71